Time,TemperatureF,DewpointF,PressureIn,WindDirection,WindDirectionDegrees,WindSpeedMPH,WindSpeedGustMPH,Humidity,HourlyPrecipIn,Conditions,Clouds,dailyrainin,SoftwareType,DateUTC
2013-05-12 00:00:00,42.5,30.8,30.05,NNW,335,4.0,4.0,63,0.00,,,0.01,Wunderground v.1.15,2013-05-12 05:00:00,
2013-05-12 00:09:00,42.3,31.7,30.05,WSW,248,3.0,3.0,66,0.00,,,0.00,Wunderground v.1.15,2013-05-12 05:09:00,
2013-05-12 00:14:00,41.9,32.1,30.05,WNW,288,3.0,3.0,68,0.00,,,0.00,Wunderground v.1.15,2013-05-12 05:14:00,
2013-05-12 00:24:00,41.8,31.3,30.05,NW,319,3.0,3.0,66,0.00,,,0.00,Wunderground v.1.15,2013-05-12 05:24:00,
2013-05-12 00:34:00,42.0,30.7,30.05,WNW,303,3.0,3.0,64,0.00,,,0.00,Wunderground v.1.15,2013-05-12 05:34:00,
2013-05-12 00:39:00,42.0,30.7,30.05,NW,310,3.0,3.0,64,0.00,,,0.00,Wunderground v.1.15,2013-05-12 05:39:00,
2013-05-12 00:44:00,42.0,30.7,30.05,WNW,287,2.0,3.0,64,0.00,,,0.00,Wunderground v.1.15,2013-05-12 05:44:00,
2013-05-12 00:49:00,42.0,30.7,30.05,NNW,340,2.0,4.0,64,0.00,,,0.00,Wunderground v.1.15,2013-05-12 05:49:00,
2013-05-12 00:54:00,42.0,30.7,30.05,NW,322,2.0,4.0,64,0.00,,,0.00,Wunderground v.1.15,2013-05-12 05:54:00,
2013-05-12 00:59:00,42.0,30.3,30.06,NNE,12,3.0,5.0,63,0.00,,,0.00,Wunderground v.1.15,2013-05-12 05:59:00,
2013-05-12 01:09:00,42.2,29.7,30.06,WNW,293,5.0,5.0,61,0.00,,,0.00,Wunderground v.1.15,2013-05-12 06:09:00,
2013-05-12 01:14:00,42.1,29.6,30.06,West,266,4.0,8.0,61,0.00,,,0.00,Wunderground v.1.15,2013-05-12 06:14:00,
2013-05-12 01:19:00,42.0,29.5,30.06,WNW,287,4.0,4.0,61,0.00,,,0.00,Wunderground v.1.15,2013-05-12 06:19:00,
2013-05-12 01:24:00,41.8,28.5,30.06,WSW,252,4.0,4.0,59,0.00,,,0.00,Wunderground v.1.15,2013-05-12 06:24:00,
2013-05-12 01:34:00,41.6,28.7,30.06,WNW,293,5.0,6.0,60,0.00,,,0.00,Wunderground v.1.15,2013-05-12 06:34:00,
2013-05-12 01:44:00,41.5,28.6,30.06,NW,311,4.0,5.0,60,0.00,,,0.00,Wunderground v.1.15,2013-05-12 06:44:00,
2013-05-12 01:49:00,41.3,28.4,30.06,NW,311,3.0,3.0,60,0.00,,,0.00,Wunderground v.1.15,2013-05-12 06:49:00,
2013-05-12 01:54:00,41.0,28.6,30.06,WNW,291,3.0,3.0,61,0.00,,,0.00,Wunderground v.1.15,2013-05-12 06:54:00,
2013-05-12 01:59:00,40.7,28.3,30.06,NW,308,3.0,4.0,61,0.00,,,0.00,Wunderground v.1.15,2013-05-12 06:59:00,
2013-05-12 02:09:00,40.3,27.9,30.06,SW,231,3.0,7.0,61,0.00,,,0.00,Wunderground v.1.15,2013-05-12 07:09:00,
2013-05-12 02:14:00,40.3,27.9,30.06,WSW,253,4.0,7.0,61,0.00,,,0.00,Wunderground v.1.15,2013-05-12 07:14:00,
2013-05-12 02:19:00,40.1,27.7,30.06,SW,231,4.0,4.0,61,0.00,,,0.00,Wunderground v.1.15,2013-05-12 07:19:00,
2013-05-12 02:24:00,40.1,27.7,30.07,NW,325,4.0,7.0,61,0.00,,,0.00,Wunderground v.1.15,2013-05-12 07:24:00,
2013-05-12 02:29:00,40.0,27.6,30.07,NNW,345,3.0,3.0,61,0.00,,,0.00,Wunderground v.1.15,2013-05-12 07:29:00,
2013-05-12 02:34:00,39.8,27.4,30.06,NW,306,3.0,3.0,61,0.00,,,0.00,Wunderground v.1.15,2013-05-12 07:34:00,
2013-05-12 02:39:00,39.7,27.3,30.07,WNW,294,3.0,3.0,61,0.00,,,0.00,Wunderground v.1.15,2013-05-12 07:39:00,
2013-05-12 02:49:00,39.6,27.2,30.07,NNW,328,3.0,3.0,61,0.00,,,0.00,Wunderground v.1.15,2013-05-12 07:49:00,
2013-05-12 02:59:00,39.5,27.2,30.07,WSW,241,3.0,5.0,61,0.00,,,0.00,Wunderground v.1.15,2013-05-12 07:59:00,
2013-05-12 03:09:00,39.4,27.5,30.07,West,266,3.0,4.0,62,0.00,,,0.00,Wunderground v.1.15,2013-05-12 08:09:00,
2013-05-12 03:14:00,39.2,27.3,30.07,WNW,287,2.0,4.0,62,0.00,,,0.00,Wunderground v.1.15,2013-05-12 08:14:00,
2013-05-12 03:19:00,39.0,27.1,30.07,WNW,284,3.0,3.0,62,0.00,,,0.00,Wunderground v.1.15,2013-05-12 08:19:00,
2013-05-12 03:24:00,39.0,26.7,30.07,SW,222,3.0,10.0,61,0.00,,,0.00,Wunderground v.1.15,2013-05-12 08:24:00,
2013-05-12 03:29:00,38.8,26.9,30.07,NW,308,3.0,3.0,62,0.00,,,0.00,Wunderground v.1.15,2013-05-12 08:29:00,
2013-05-12 03:34:00,38.8,26.9,30.07,West,273,4.0,4.0,62,0.00,,,0.00,Wunderground v.1.15,2013-05-12 08:34:00,
2013-05-12 03:39:00,38.5,27.0,30.07,WSW,240,3.0,3.0,63,0.00,,,0.00,Wunderground v.1.15,2013-05-12 08:39:00,
2013-05-12 03:44:00,38.4,26.5,30.07,WNW,297,2.0,3.0,62,0.00,,,0.00,Wunderground v.1.15,2013-05-12 08:44:00,
2013-05-12 03:54:00,38.1,26.2,30.07,NNW,330,3.0,6.0,62,0.00,,,0.00,Wunderground v.1.15,2013-05-12 08:54:00,
2013-05-12 03:59:00,38.1,26.2,30.07,WSW,255,4.0,4.0,62,0.00,,,0.00,Wunderground v.1.15,2013-05-12 08:59:00,
2013-05-12 04:09:00,37.8,25.9,30.08,WSW,238,3.0,3.0,62,0.00,,,0.00,Wunderground v.1.15,2013-05-12 09:09:00,
2013-05-12 04:14:00,37.7,26.2,30.08,West,276,3.0,3.0,63,0.00,,,0.00,Wunderground v.1.15,2013-05-12 09:14:00,
2013-05-12 04:19:00,37.4,25.9,30.08,NNE,13,3.0,3.0,63,0.00,,,0.00,Wunderground v.1.15,2013-05-12 09:19:00,
2013-05-12 04:29:00,37.7,25.5,30.08,NW,312,3.0,5.0,61,0.00,,,0.00,Wunderground v.1.15,2013-05-12 09:29:00,
2013-05-12 04:34:00,37.7,25.5,30.07,NNE,18,3.0,5.0,61,0.00,,,0.00,Wunderground v.1.15,2013-05-12 09:34:00,
2013-05-12 04:39:00,37.7,25.1,30.07,NNE,25,3.0,5.0,60,0.00,,,0.00,Wunderground v.1.15,2013-05-12 09:39:00,
2013-05-12 04:44:00,37.7,25.5,30.07,WNW,298,3.0,5.0,61,0.00,,,0.00,Wunderground v.1.15,2013-05-12 09:44:00,
2013-05-12 04:49:00,37.2,25.8,30.07,West,278,2.0,2.0,63,0.00,,,0.00,Wunderground v.1.15,2013-05-12 09:49:00,
2013-05-12 04:54:00,36.6,25.9,30.07,NNW,342,1.0,2.0,65,0.00,,,0.00,Wunderground v.1.15,2013-05-12 09:54:00,
2013-05-12 04:59:00,36.2,25.9,30.07,WNW,285,1.0,1.0,66,0.00,,,0.00,Wunderground v.1.15,2013-05-12 09:59:00,
2013-05-12 05:09:00,35.6,26.1,30.07,WNW,289,1.0,1.0,68,0.00,,,0.00,Wunderground v.1.15,2013-05-12 10:09:00,
2013-05-12 05:19:00,35.7,26.2,30.07,WSW,248,1.0,2.0,68,0.00,,,0.00,Wunderground v.1.15,2013-05-12 10:19:00,
2013-05-12 05:24:00,36.0,26.1,30.07,NNW,330,2.0,2.0,67,0.00,,,0.00,Wunderground v.1.15,2013-05-12 10:24:00,
2013-05-12 05:29:00,35.9,26.4,30.07,WNW,284,2.0,2.0,68,0.00,,,0.00,Wunderground v.1.15,2013-05-12 10:29:00,
2013-05-12 05:39:00,35.7,26.5,30.08,WNW,283,2.0,2.0,69,0.00,,,0.00,Wunderground v.1.15,2013-05-12 10:39:00,
2013-05-12 05:44:00,35.6,26.8,30.08,NW,323,2.0,4.0,70,0.00,,,0.00,Wunderground v.1.15,2013-05-12 10:44:00,
2013-05-12 05:49:00,35.8,26.6,30.08,NW,322,2.0,2.0,69,0.00,,,0.00,Wunderground v.1.15,2013-05-12 10:49:00,
2013-05-12 05:54:00,35.9,26.7,30.08,West,269,2.0,3.0,69,0.00,,,0.00,Wunderground v.1.15,2013-05-12 10:54:00,
2013-05-12 05:59:00,36.0,26.8,30.08,WNW,292,2.0,2.0,69,0.00,,,0.00,Wunderground v.1.15,2013-05-12 10:59:00,
2013-05-12 06:09:00,36.2,27.0,30.09,WNW,283,3.0,3.0,69,0.00,,,0.00,Wunderground v.1.15,2013-05-12 11:09:00,
2013-05-12 06:14:00,36.3,27.1,30.09,WNW,300,2.0,3.0,69,0.00,,,0.00,Wunderground v.1.15,2013-05-12 11:14:00,
2013-05-12 06:24:00,36.6,27.4,30.09,WNW,291,3.0,4.0,69,0.00,,,0.00,Wunderground v.1.15,2013-05-12 11:24:00,
2013-05-12 06:29:00,36.9,27.7,30.09,West,276,4.0,4.0,69,0.00,,,0.00,Wunderground v.1.15,2013-05-12 11:29:00,
2013-05-12 06:34:00,37.0,27.8,30.09,WNW,303,3.0,4.0,69,0.00,,,0.00,Wunderground v.1.15,2013-05-12 11:34:00,
2013-05-12 06:44:00,37.4,27.8,30.09,NW,323,5.0,6.0,68,0.00,,,0.00,Wunderground v.1.15,2013-05-12 11:44:00,
2013-05-12 06:49:00,37.5,28.2,30.09,WNW,299,4.0,7.0,69,0.00,,,0.00,Wunderground v.1.15,2013-05-12 11:49:00,
2013-05-12 06:54:00,37.7,27.4,30.09,WSW,245,4.0,7.0,66,0.00,,,0.00,Wunderground v.1.15,2013-05-12 11:54:00,
2013-05-12 06:59:00,37.9,27.9,30.09,NW,325,4.0,4.0,67,0.00,,,0.00,Wunderground v.1.15,2013-05-12 11:59:00,
2013-05-12 07:08:00,38.2,26.7,30.09,NW,317,4.0,4.0,63,0.00,,,0.00,Wunderground v.1.15,2013-05-12 12:08:00,
2013-05-12 07:18:00,38.6,26.7,30.09,NE,34,4.0,7.0,62,0.00,,,0.00,Wunderground v.1.15,2013-05-12 12:18:00,
2013-05-12 07:23:00,38.5,26.2,30.10,NNE,27,5.0,7.0,61,0.00,,,0.00,Wunderground v.1.15,2013-05-12 12:23:00,
2013-05-12 07:29:00,38.6,27.1,30.10,North,8,5.0,6.0,63,0.00,,,0.00,Wunderground v.1.15,2013-05-12 12:29:00,
2013-05-12 07:34:00,38.8,27.3,30.10,NW,308,4.0,6.0,63,0.00,,,0.00,Wunderground v.1.15,2013-05-12 12:34:00,
2013-05-12 07:39:00,38.7,27.6,30.10,WNW,284,4.0,4.0,64,0.00,,,0.00,Wunderground v.1.15,2013-05-12 12:39:00,
2013-05-12 07:44:00,38.9,27.8,30.10,NNW,339,4.0,4.0,64,0.00,,,0.00,Wunderground v.1.15,2013-05-12 12:44:00,
2013-05-12 07:54:00,39.0,27.5,30.10,NW,316,5.0,5.0,63,0.00,,,0.00,Wunderground v.1.15,2013-05-12 12:54:00,
2013-05-12 08:03:00,39.0,27.5,30.10,NNW,347,5.0,5.0,63,0.00,,,0.00,Wunderground v.1.15,2013-05-12 13:03:00,
2013-05-12 08:08:00,39.3,27.7,30.10,NNE,19,4.0,5.0,63,0.00,,,0.00,Wunderground v.1.15,2013-05-12 13:08:00,
2013-05-12 08:13:00,39.8,26.2,30.11,West,274,4.0,5.0,58,0.00,,,0.00,Wunderground v.1.15,2013-05-12 13:13:00,
2013-05-12 08:18:00,40.1,26.5,30.10,West,262,5.0,8.0,58,0.00,,,0.00,Wunderground v.1.15,2013-05-12 13:18:00,
2013-05-12 08:28:00,40.0,25.6,30.11,West,277,6.0,8.0,56,0.00,,,0.00,Wunderground v.1.15,2013-05-12 13:28:00,
2013-05-12 08:33:00,40.3,26.3,30.11,WNW,295,6.0,8.0,57,0.00,,,0.00,Wunderground v.1.15,2013-05-12 13:33:00,
2013-05-12 08:38:00,40.5,26.4,30.11,West,273,5.0,10.0,57,0.00,,,0.00,Wunderground v.1.15,2013-05-12 13:38:00,
2013-05-12 08:48:00,40.6,26.5,30.11,NE,34,6.0,6.0,57,0.00,,,0.00,Wunderground v.1.15,2013-05-12 13:48:00,
2013-05-12 08:53:00,40.5,26.0,30.11,North,357,5.0,6.0,56,0.00,,,0.00,Wunderground v.1.15,2013-05-12 13:53:00,
2013-05-12 08:58:00,40.2,25.3,30.11,WNW,283,5.0,7.0,55,0.00,,,0.00,Wunderground v.1.15,2013-05-12 13:58:00,
2013-05-12 09:08:00,40.9,25.5,30.12,WNW,301,5.0,5.0,54,0.00,,,0.00,Wunderground v.1.15,2013-05-12 14:08:00,
2013-05-12 09:13:00,41.2,25.8,30.11,NNW,342,5.0,5.0,54,0.00,,,0.00,Wunderground v.1.15,2013-05-12 14:13:00,
2013-05-12 09:18:00,42.2,26.7,30.11,NE,34,4.0,9.0,54,0.00,,,0.00,Wunderground v.1.15,2013-05-12 14:18:00,
2013-05-12 09:28:00,42.4,27.4,30.11,NNW,334,5.0,5.0,55,0.00,,,0.00,Wunderground v.1.15,2013-05-12 14:28:00,
2013-05-12 09:38:00,42.7,26.7,30.11,WNW,300,5.0,8.0,53,0.00,,,0.00,Wunderground v.1.15,2013-05-12 14:38:00,
2013-05-12 09:43:00,42.7,27.2,30.11,SW,233,5.0,8.0,54,0.00,,,0.00,Wunderground v.1.15,2013-05-12 14:43:00,
2013-05-12 09:48:00,43.1,28.0,30.11,WNW,284,5.0,5.0,55,0.00,,,0.00,Wunderground v.1.15,2013-05-12 14:48:00,
2013-05-12 09:53:00,43.2,27.2,30.11,WNW,289,5.0,5.0,53,0.00,,,0.00,Wunderground v.1.15,2013-05-12 14:53:00,
2013-05-12 09:58:00,43.5,28.4,30.11,WNW,288,5.0,5.0,55,0.00,,,0.00,Wunderground v.1.15,2013-05-12 14:58:00,
2013-05-12 10:08:00,43.4,29.6,30.12,NNW,328,5.0,5.0,58,0.00,,,0.00,Wunderground v.1.15,2013-05-12 15:08:00,
2013-05-12 10:18:00,44.2,29.0,30.11,North,5,4.0,4.0,55,0.00,,,0.00,Wunderground v.1.15,2013-05-12 15:18:00,
2013-05-12 10:23:00,44.6,27.6,30.12,WSW,255,4.0,5.0,51,0.00,,,0.00,Wunderground v.1.15,2013-05-12 15:23:00,
2013-05-12 10:33:00,45.0,30.7,30.12,NW,304,5.0,5.0,57,0.00,,,0.00,Wunderground v.1.15,2013-05-12 15:33:00,
2013-05-12 10:43:00,45.2,30.4,30.12,West,267,3.0,6.0,56,0.00,,,0.00,Wunderground v.1.15,2013-05-12 15:43:00,
2013-05-12 10:48:00,45.2,29.1,30.12,West,280,4.0,7.0,53,0.00,,,0.00,Wunderground v.1.15,2013-05-12 15:48:00,
2013-05-12 10:53:00,45.3,27.7,30.12,WSW,250,5.0,7.0,50,0.00,,,0.00,Wunderground v.1.15,2013-05-12 15:53:00,
2013-05-12 10:59:00,45.7,27.6,30.12,WNW,300,5.0,5.0,49,0.00,,,0.00,Wunderground v.1.15,2013-05-12 15:59:00,
2013-05-12 11:09:00,46.4,29.7,30.11,West,280,4.0,7.0,52,0.00,,,0.00,Wunderground v.1.15,2013-05-12 16:09:00,
2013-05-12 11:14:00,46.5,27.8,30.12,SW,226,4.0,7.0,48,0.00,,,0.00,Wunderground v.1.15,2013-05-12 16:14:00,
2013-05-12 11:19:00,46.2,28.1,30.11,North,11,5.0,5.0,49,0.00,,,0.00,Wunderground v.1.15,2013-05-12 16:19:00,
2013-05-12 11:24:00,46.6,27.4,30.11,SW,236,5.0,5.0,47,0.00,,,0.00,Wunderground v.1.15,2013-05-12 16:24:00,
2013-05-12 11:34:00,47.0,27.8,30.11,SW,221,5.0,6.0,47,0.00,,,0.00,Wunderground v.1.15,2013-05-12 16:34:00,
2013-05-12 11:39:00,46.8,28.1,30.11,NW,304,5.0,6.0,48,0.00,,,0.00,Wunderground v.1.15,2013-05-12 16:39:00,
2013-05-12 11:49:00,47.5,27.7,30.11,West,280,4.0,4.0,46,0.00,,,0.00,Wunderground v.1.15,2013-05-12 16:49:00,
2013-05-12 11:54:00,47.4,28.7,30.11,WNW,291,4.0,6.0,48,0.00,,,0.00,Wunderground v.1.15,2013-05-12 16:54:00,
2013-05-12 11:59:00,47.6,26.2,30.11,WNW,299,6.0,6.0,43,0.00,,,0.00,Wunderground v.1.15,2013-05-12 16:59:00,
2013-05-12 12:08:00,47.6,26.2,30.11,NW,318,5.0,6.0,43,0.00,,,0.00,Wunderground v.1.15,2013-05-12 17:08:00,
2013-05-12 12:13:00,48.0,27.6,30.10,NNW,342,5.0,6.0,45,0.00,,,0.00,Wunderground v.1.15,2013-05-12 17:13:00,
2013-05-12 12:23:00,48.8,27.8,30.10,NNW,343,5.0,5.0,44,0.00,,,0.00,Wunderground v.1.15,2013-05-12 17:23:00,
2013-05-12 12:28:00,48.6,27.1,30.10,West,269,5.0,5.0,43,0.00,,,0.00,Wunderground v.1.15,2013-05-12 17:28:00,
2013-05-12 12:33:00,49.2,28.7,30.10,West,277,5.0,5.0,45,0.00,,,0.00,Wunderground v.1.15,2013-05-12 17:33:00,
2013-05-12 12:38:00,49.1,28.7,30.10,West,271,5.0,6.0,45,0.00,,,0.00,Wunderground v.1.15,2013-05-12 17:38:00,
2013-05-12 12:44:00,49.7,26.9,30.10,WSW,245,5.0,6.0,41,0.00,,,0.00,Wunderground v.1.15,2013-05-12 17:44:00,
2013-05-12 12:49:00,49.7,28.1,30.10,NNW,328,5.0,5.0,43,0.00,,,0.00,Wunderground v.1.15,2013-05-12 17:49:00,
2013-05-12 12:59:00,49.8,26.4,30.10,NNW,333,5.0,5.0,40,0.00,,,0.00,Wunderground v.1.15,2013-05-12 17:59:00,
2013-05-12 13:08:00,50.0,27.8,30.10,WNW,292,4.0,4.0,42,0.00,,,0.00,Wunderground v.1.15,2013-05-12 18:08:00,
2013-05-12 13:13:00,50.0,28.4,30.09,ENE,77,5.0,5.0,43,0.00,,,0.00,Wunderground v.1.15,2013-05-12 18:13:00,
2013-05-12 13:18:00,50.3,27.5,30.09,NW,323,6.0,6.0,41,0.00,,,0.00,Wunderground v.1.15,2013-05-12 18:18:00,
2013-05-12 13:23:00,50.8,27.9,30.09,North,359,4.0,6.0,41,0.00,,,0.00,Wunderground v.1.15,2013-05-12 18:23:00,
2013-05-12 13:33:00,50.8,29.1,30.09,WNW,287,5.0,5.0,43,0.00,,,0.00,Wunderground v.1.15,2013-05-12 18:33:00,
2013-05-12 13:38:00,50.9,28.0,30.09,WSW,253,5.0,5.0,41,0.00,,,0.00,Wunderground v.1.15,2013-05-12 18:38:00,
2013-05-12 13:43:00,51.1,29.4,30.08,West,271,5.0,5.0,43,0.00,,,0.00,Wunderground v.1.15,2013-05-12 18:43:00,
2013-05-12 13:48:00,51.8,26.3,30.09,NNW,344,4.0,5.0,37,0.00,,,0.00,Wunderground v.1.15,2013-05-12 18:48:00,
2013-05-12 13:58:00,52.0,26.5,30.08,West,274,4.0,14.0,37,0.00,,,0.00,Wunderground v.1.15,2013-05-12 18:58:00,
2013-05-12 14:08:00,51.9,27.1,30.08,NW,307,6.0,6.0,38,0.00,,,0.00,Wunderground v.1.15,2013-05-12 19:08:00,
2013-05-12 14:13:00,51.9,26.4,30.08,WNW,290,5.0,7.0,37,0.00,,,0.00,Wunderground v.1.15,2013-05-12 19:13:00,
2013-05-12 14:18:00,51.9,27.1,30.08,SW,226,6.0,6.0,38,0.00,,,0.00,Wunderground v.1.15,2013-05-12 19:18:00,
2013-05-12 14:23:00,52.6,27.7,30.08,West,281,5.0,6.0,38,0.00,,,0.00,Wunderground v.1.15,2013-05-12 19:23:00,
2013-05-12 14:28:00,52.7,26.5,30.08,WSW,257,4.0,7.0,36,0.00,,,0.00,Wunderground v.1.15,2013-05-12 19:28:00,
2013-05-12 14:38:00,53.1,26.1,30.08,West,281,6.0,6.0,35,0.00,,,0.00,Wunderground v.1.15,2013-05-12 19:38:00,
2013-05-12 14:48:00,53.1,26.8,30.08,West,277,5.0,5.0,36,0.00,,,0.00,Wunderground v.1.15,2013-05-12 19:48:00,
2013-05-12 14:53:00,52.9,25.3,30.07,SW,232,5.0,5.0,34,0.00,,,0.00,Wunderground v.1.15,2013-05-12 19:53:00,
2013-05-12 14:58:00,52.8,26.6,30.07,NNW,337,5.0,5.0,36,0.00,,,0.00,Wunderground v.1.15,2013-05-12 19:58:00,
2013-05-12 15:08:00,53.4,25.7,30.07,West,274,5.0,5.0,34,0.00,,,0.00,Wunderground v.1.15,2013-05-12 20:08:00,
2013-05-12 15:13:00,53.1,24.0,30.07,West,263,6.0,6.0,32,0.00,,,0.00,Wunderground v.1.15,2013-05-12 20:13:00,
2013-05-12 15:18:00,53.4,25.0,30.07,West,273,6.0,10.0,33,0.00,,,0.00,Wunderground v.1.15,2013-05-12 20:18:00,
2013-05-12 15:23:00,53.3,25.6,30.07,West,274,5.0,11.0,34,0.00,,,0.00,Wunderground v.1.15,2013-05-12 20:23:00,
2013-05-12 15:28:00,53.5,26.5,30.07,WNW,288,5.0,5.0,35,0.00,,,0.00,Wunderground v.1.15,2013-05-12 20:28:00,
2013-05-12 15:38:00,53.8,28.8,30.06,SW,215,5.0,5.0,38,0.00,,,0.00,Wunderground v.1.15,2013-05-12 20:38:00,
2013-05-12 15:48:00,54.0,24.0,30.06,West,274,6.0,6.0,31,0.00,,,0.00,Wunderground v.1.15,2013-05-12 20:48:00,
2013-05-12 15:53:00,54.1,24.9,30.06,WSW,255,5.0,6.0,32,0.00,,,0.00,Wunderground v.1.15,2013-05-12 20:53:00,
2013-05-12 15:59:00,54.4,26.6,30.06,NW,307,4.0,7.0,34,0.00,,,0.00,Wunderground v.1.15,2013-05-12 20:59:00,
2013-05-12 16:05:00,54.2,24.9,30.06,WNW,291,4.0,7.0,32,0.00,,,0.00,Wunderground v.1.15,2013-05-12 21:05:00,
2013-05-12 16:10:00,54.2,27.1,30.06,West,274,4.0,7.0,35,0.00,,,0.00,Wunderground v.1.15,2013-05-12 21:10:00,
2013-05-12 16:15:00,54.9,27.0,30.06,WNW,287,5.0,7.0,34,0.00,,,0.00,Wunderground v.1.15,2013-05-12 21:15:00,
2013-05-12 16:20:00,54.5,24.4,30.06,West,271,6.0,6.0,31,0.00,,,0.00,Wunderground v.1.15,2013-05-12 21:20:00,
2013-05-12 16:25:00,54.3,23.5,30.06,West,259,6.0,6.0,30,0.00,,,0.00,Wunderground v.1.15,2013-05-12 21:25:00,
2013-05-12 16:30:00,54.5,26.7,30.05,WNW,294,4.0,9.0,34,0.00,,,0.00,Wunderground v.1.15,2013-05-12 21:30:00,
2013-05-12 16:40:00,54.9,24.8,30.05,NNW,340,5.0,8.0,31,0.00,,,0.00,Wunderground v.1.15,2013-05-12 21:40:00,
2013-05-12 16:45:00,54.8,23.9,30.05,North,352,5.0,8.0,30,0.00,,,0.00,Wunderground v.1.15,2013-05-12 21:45:00,
2013-05-12 16:50:00,54.9,25.6,30.05,WNW,297,4.0,4.0,32,0.00,,,0.00,Wunderground v.1.15,2013-05-12 21:50:00,
2013-05-12 16:55:00,54.6,24.5,30.05,WNW,300,5.0,5.0,31,0.00,,,0.00,Wunderground v.1.15,2013-05-12 21:55:00,
2013-05-12 17:00:00,54.6,24.5,30.05,WNW,300,5.0,5.0,31,0.00,,,0.00,Wunderground v.1.15,2013-05-12 22:00:00,
2013-05-12 17:10:00,54.7,24.6,30.05,WNW,300,6.0,6.0,31,0.00,,,0.00,Wunderground v.1.15,2013-05-12 22:10:00,
2013-05-12 17:15:00,55.0,25.6,30.05,WSW,256,5.0,6.0,32,0.00,,,0.00,Wunderground v.1.15,2013-05-12 22:15:00,
2013-05-12 17:20:00,55.3,25.1,30.05,WSW,243,4.0,9.0,31,0.00,,,0.00,Wunderground v.1.15,2013-05-12 22:20:00,
2013-05-12 17:25:00,55.0,24.1,30.05,NNW,347,4.0,9.0,30,0.00,,,0.00,Wunderground v.1.15,2013-05-12 22:25:00,
2013-05-12 17:30:00,55.1,25.0,30.06,West,266,5.0,5.0,31,0.00,,,0.00,Wunderground v.1.15,2013-05-12 22:30:00,
2013-05-12 17:35:00,54.9,24.0,30.06,NNW,343,5.0,8.0,30,0.00,,,0.00,Wunderground v.1.15,2013-05-12 22:35:00,
2013-05-12 17:40:00,54.8,23.9,30.06,SW,229,5.0,10.0,30,0.00,,,0.00,Wunderground v.1.15,2013-05-12 22:40:00,
2013-05-12 17:50:00,54.8,23.1,30.05,WSW,253,5.0,5.0,29,0.00,,,0.00,Wunderground v.1.15,2013-05-12 22:50:00,
2013-05-12 17:55:00,54.8,23.9,30.05,NNW,345,5.0,5.0,30,0.00,,,0.00,Wunderground v.1.15,2013-05-12 22:55:00,
2013-05-12 18:00:00,54.7,23.8,30.05,WNW,285,5.0,5.0,30,0.00,,,0.00,Wunderground v.1.15,2013-05-12 23:00:00,
2013-05-12 18:10:00,54.6,22.9,30.05,WSW,240,5.0,5.0,29,0.00,,,0.00,Wunderground v.1.15,2013-05-12 23:10:00,
2013-05-12 18:15:00,54.4,21.9,30.05,NNW,333,6.0,6.0,28,0.00,,,0.00,Wunderground v.1.15,2013-05-12 23:15:00,
2013-05-12 18:20:00,54.6,22.9,30.05,WNW,293,5.0,5.0,29,0.00,,,0.00,Wunderground v.1.15,2013-05-12 23:20:00,
2013-05-12 18:30:00,54.7,25.4,30.05,NW,305,4.0,4.0,32,0.00,,,0.00,Wunderground v.1.15,2013-05-12 23:30:00,
2013-05-12 18:35:00,54.5,23.7,30.05,WNW,300,4.0,4.0,30,0.00,,,0.00,Wunderground v.1.15,2013-05-12 23:35:00,
2013-05-12 18:40:00,54.7,25.4,30.05,West,274,3.0,3.0,32,0.00,,,0.00,Wunderground v.1.15,2013-05-12 23:40:00,
2013-05-12 18:45:00,54.6,22.1,30.04,NW,319,3.0,3.0,28,0.00,,,0.00,Wunderground v.1.15,2013-05-12 23:45:00,
2013-05-12 18:55:00,54.2,22.6,30.05,SW,222,4.0,4.0,29,0.00,,,0.00,Wunderground v.1.15,2013-05-12 23:55:00,
2013-05-12 19:00:00,54.1,23.3,30.05,NNW,332,3.0,3.0,30,0.00,,,0.00,Wunderground v.1.15,2013-05-13 00:00:00,
2013-05-12 19:10:00,53.6,22.9,30.05,WSW,248,4.0,4.0,30,0.00,,,0.00,Wunderground v.1.15,2013-05-13 00:10:00,
2013-05-12 19:15:00,53.5,24.3,30.05,NNW,332,4.0,4.0,32,0.00,,,0.00,Wunderground v.1.15,2013-05-13 00:15:00,
2013-05-12 19:20:00,53.3,24.2,30.05,West,264,3.0,3.0,32,0.00,,,0.00,Wunderground v.1.15,2013-05-13 00:20:00,
2013-05-12 19:30:00,52.7,22.9,30.05,SSW,212,2.0,7.0,31,0.00,,,0.00,Wunderground v.1.15,2013-05-13 00:30:00,
2013-05-12 19:35:00,52.4,23.4,30.05,SW,231,3.0,7.0,32,0.00,,,0.00,Wunderground v.1.15,2013-05-13 00:35:00,
2013-05-12 19:44:00,51.6,23.4,30.05,WNW,293,3.0,3.0,33,0.00,,,0.00,Wunderground v.1.15,2013-05-13 00:44:00,
2013-05-12 19:50:00,51.3,23.8,30.05,NNW,333,2.0,2.0,34,0.00,,,0.00,Wunderground v.1.15,2013-05-13 00:50:00,
2013-05-12 19:55:00,50.9,23.5,30.05,NNW,335,2.0,2.0,34,0.00,,,0.00,Wunderground v.1.15,2013-05-13 00:55:00,
2013-05-12 20:00:00,50.4,23.7,30.06,WSW,238,2.0,2.0,35,0.00,,,0.00,Wunderground v.1.15,2013-05-13 01:00:00,
2013-05-12 20:10:00,49.8,23.2,30.06,West,274,2.0,2.0,35,0.00,,,0.00,Wunderground v.1.15,2013-05-13 01:10:00,
2013-05-12 20:15:00,49.5,22.9,30.06,West,266,1.0,2.0,35,0.00,,,0.00,Wunderground v.1.15,2013-05-13 01:15:00,
2013-05-12 20:20:00,49.0,23.8,30.06,NNE,27,1.0,1.0,37,0.00,,,0.00,Wunderground v.1.15,2013-05-13 01:20:00,
2013-05-12 20:25:00,48.4,23.9,30.06,West,271,0.0,1.0,38,0.00,,,0.00,Wunderground v.1.15,2013-05-13 01:25:00,
2013-05-12 20:35:00,47.7,23.3,30.06,WNW,288,0.0,0.0,38,0.00,,,0.00,Wunderground v.1.15,2013-05-13 01:35:00,
2013-05-12 20:40:00,47.5,23.7,30.06,WNW,293,0.0,1.0,39,0.00,,,0.00,Wunderground v.1.15,2013-05-13 01:40:00,
2013-05-12 20:45:00,47.2,24.1,30.06,WSW,250,0.0,1.0,40,0.00,,,0.00,Wunderground v.1.15,2013-05-13 01:45:00,
2013-05-12 20:50:00,46.9,23.2,30.07,West,267,0.0,0.0,39,0.00,,,0.00,Wunderground v.1.15,2013-05-13 01:50:00,
2013-05-12 21:00:00,46.4,22.8,30.07,West,259,0.0,0.0,39,0.00,,,0.00,Wunderground v.1.15,2013-05-13 02:00:00,
2013-05-12 21:09:00,45.7,23.9,30.07,WSW,255,0.0,0.0,42,0.00,,,0.00,Wunderground v.1.15,2013-05-13 02:09:00,
2013-05-12 21:14:00,45.3,24.1,30.08,SW,228,0.0,0.0,43,0.00,,,0.00,Wunderground v.1.15,2013-05-13 02:14:00,
2013-05-12 21:19:00,45.0,23.8,30.08,WSW,249,0.0,0.0,43,0.00,,,0.00,Wunderground v.1.15,2013-05-13 02:19:00,
2013-05-12 21:24:00,45.0,23.8,30.08,WSW,245,0.0,0.0,43,0.00,,,0.00,Wunderground v.1.15,2013-05-13 02:24:00,
2013-05-12 21:30:00,44.9,23.7,30.08,SW,231,0.0,0.0,43,0.00,,,0.00,Wunderground v.1.15,2013-05-13 02:30:00,
2013-05-12 21:35:00,44.9,23.2,30.08,SW,226,0.0,0.0,42,0.00,,,0.00,Wunderground v.1.15,2013-05-13 02:35:00,
2013-05-12 21:45:00,43.9,24.4,30.08,SW,226,0.0,0.0,46,0.00,,,0.00,Wunderground v.1.15,2013-05-13 02:45:00,
2013-05-12 21:50:00,42.9,25.0,30.08,SW,226,0.0,0.0,49,0.00,,,0.00,Wunderground v.1.15,2013-05-13 02:50:00,
2013-05-12 21:55:00,42.1,24.8,30.08,SW,226,0.0,0.0,50,0.00,,,0.00,Wunderground v.1.15,2013-05-13 02:55:00,
2013-05-12 22:00:00,41.6,25.3,30.08,SW,226,0.0,0.0,52,0.00,,,0.00,Wunderground v.1.15,2013-05-13 03:00:00,
2013-05-12 22:09:00,41.0,25.2,30.08,SW,226,0.0,0.0,53,0.00,,,0.00,Wunderground v.1.15,2013-05-13 03:09:00,
2013-05-12 22:19:00,40.6,25.7,30.09,SW,225,0.0,0.0,55,0.00,,,0.00,Wunderground v.1.15,2013-05-13 03:19:00,
2013-05-12 22:24:00,40.3,25.0,30.09,SW,225,0.0,0.0,54,0.00,,,0.00,Wunderground v.1.15,2013-05-13 03:24:00,
2013-05-12 22:29:00,39.9,25.9,30.09,SW,225,0.0,0.0,57,0.00,,,0.00,Wunderground v.1.15,2013-05-13 03:29:00,
2013-05-12 22:34:00,39.8,25.8,30.09,SW,225,0.0,0.0,57,0.00,,,0.00,Wunderground v.1.15,2013-05-13 03:34:00,
2013-05-12 22:39:00,39.5,25.9,30.09,SW,225,0.0,0.0,58,0.00,,,0.00,Wunderground v.1.15,2013-05-13 03:39:00,
2013-05-12 22:49:00,38.5,25.8,30.09,SW,225,0.0,0.0,60,0.00,,,0.00,Wunderground v.1.15,2013-05-13 03:49:00,
2013-05-12 22:54:00,37.9,26.8,30.09,SW,224,0.0,0.0,64,0.00,,,0.00,Wunderground v.1.15,2013-05-13 03:54:00,
2013-05-12 23:00:00,37.2,25.8,30.09,SW,225,0.0,0.0,63,0.00,,,0.00,Wunderground v.1.15,2013-05-13 04:00:00,
2013-05-12 23:04:00,37.0,26.7,30.08,SW,225,0.0,0.0,66,0.00,,,0.00,Wunderground v.1.15,2013-05-13 04:04:00,
2013-05-12 23:10:00,36.9,26.6,30.09,SW,225,0.0,0.0,66,0.00,,,0.00,Wunderground v.1.15,2013-05-13 04:10:00,
2013-05-12 23:15:00,36.6,26.7,30.08,SW,225,0.0,0.0,67,0.00,,,0.00,Wunderground v.1.15,2013-05-13 04:15:00,
2013-05-12 23:20:00,36.0,27.2,30.08,SW,226,0.0,0.0,70,0.00,,,0.00,Wunderground v.1.15,2013-05-13 04:20:00,
2013-05-12 23:25:00,35.5,27.4,30.09,SW,225,0.0,0.0,72,0.00,,,0.00,Wunderground v.1.15,2013-05-13 04:25:00,
2013-05-12 23:34:00,34.4,26.3,30.08,SW,225,0.0,0.0,72,0.00,,,0.00,Wunderground v.1.15,2013-05-13 04:34:00,
2013-05-12 23:39:00,34.0,25.9,30.08,SW,225,0.0,0.0,72,0.00,,,0.00,Wunderground v.1.15,2013-05-13 04:39:00,
2013-05-12 23:44:00,34.4,26.6,30.08,SW,225,0.0,0.0,73,0.00,,,0.00,Wunderground v.1.15,2013-05-13 04:44:00,
2013-05-12 23:49:00,34.8,27.4,30.09,SW,225,0.0,0.0,74,0.00,,,0.00,Wunderground v.1.15,2013-05-13 04:49:00,
2013-05-12 23:59:00,34.4,27.6,30.09,SW,225,0.0,0.0,76,0.00,,,0.00,Wunderground v.1.15,2013-05-13 04:59:00,